AirNav   Everest Fuels
 
 365 users online  

AK12 Flying Crown Airport
Anchorage, Alaska, USA

GOING TO ANCHORAGE?


FAA INFORMATION EFFECTIVE 20 JUNE 2019

Location

FAA Identifier: AK12
Lat/Long: 61-06-23.7600N / 149-51-51.3700W
61-06.396000N / 149-51.856167W
61.1066000 / -149.8642694
(estimated)
Elevation: 150 ft. / 46 m (estimated)
Variation: 25E (1985)
From city: 6 miles S of ANCHORAGE, AK
Time zone: UTC -8 (UTC -9 during Standard Time)
Zip code: 99515

Airport Operations

Airport use: Private use. Permission required prior to landing
Activation date: 03/1990
Control tower: no
ARTCC: ANCHORAGE CENTER
FSS: KENAI FLIGHT SERVICE STATION [907-283-8469]
Attendance: UNATNDD
Wind indicator: yes
Segmented circle: no

Airport Communications

CTAF: 122.9
WX ASOS at ANC (6 nm NW): 118.4 or 135.5 (907-271-5278)
WX ASOS at LHD (6 nm NW): 125.6 (907-271-6549)
WX ASOS at MRI (6 nm N): 124.25 (907-271-5277)
WX AWOS-3 at FRN (11 nm NE): 134.25 or 118.525 (907-384-0132)

Nearby radio navigation aids

VOR radial/distance  VOR name  Freq  Var
TEDr125/4.6ANCHORAGE VOR/DME113.1518E
BGQr155/27.9BIG LAKE VORTAC112.5019E

 
NDB name  Hdg/Dist  Freq  Var  ID
CAMPBELL LAKE110/6.633816ECMQ -.-. -- --.-

Airport Services

Runway Information

Runway 13/31

Dimensions: 1078 x 50 ft. / 329 x 15 m
Surface: turf, in poor condition
RUNWAY 13  RUNWAY 31
Traffic pattern: leftright
Displaced threshold: 30 ft.798 ft.
Obstructions: trees, 20:1 slope to cleartrees, 20:1 slope to clear

Airport Ownership and Management from official FAA records

Ownership: Privately-owned
Owner: FLYING CROWN/OCEANVIEW NORTH
910 HARBOR CIRCLE
ANCHORAGE, AK 99515
Phone 907-245-1932
Manager: FLYING CROWN/OCEANVIEW NORTH
910 HARBOR CIRCLE
ANCHORAGE, AK 99515
Phone 907-245-1932

Airport Operational Statistics

Aircraft based on the field: 27
Single engine airplanes: 27
    
Aircraft operations: avg 59/week
97% local general aviation
3% transient general aviation

Additional Remarks

RY CONDITIONS UNMONITORED; VISUAL INSPECTION RECOMMENDED PRIOR TO USE. WATCH FOR PEDESTRIANS. MULTIPLE SPRINKLER AND EQUIPMENT ON OR NEAR RY. AND HILL NEAR END OF RYS NOT MAINTAINED IN WINTER.
ANCHORAGEWX CAMERA AVBL ON INTERNET AT HTTP://AVCAMS.FAA.GOV
RAILROAD RUNS PARALLEL TO RY, FREQUENT TRAIN TRAFFIC. OPNS NOT RCMDD DURING TRAIN TRAFFIC.

Instrument Procedures

There are no published instrument procedures at AK12.

Some nearby airports with instrument procedures:

PANC - Ted Stevens Anchorage International Airport (6 nm NW)
PAMR - Merrill Field Airport (6 nm N)
PAED - Elmendorf Air Force Base (9 nm N)
PAFR - Bryant Army Airfield Heliport (11 nm NE)
PAGQ - Big Lake Airport (26 nm N)
 
Loc | Ops | Rwys | IFR | FBO | Links
Com | Nav | Svcs | Stats | Notes

Crowley
 
Area around AK12 (Flying Crown Airport)
 
Road maps at: MapQuest Bing Google
 
Aerial photo
WARNING: Photo may not be current or correct
Aerial photo of AK12 (Flying Crown Airport)
Photo by Mike Harlow
Taken in August 2011

Do you have a better or more recent aerial photo of Flying Crown Airport that you would like to share? If so, please send us your photo.

 
Sectional chart

 
Airport distance calculator
Flying to Flying Crown Airport? Find the distance to fly.

From to AK12

Sunrise and sunset
Times for 25-Jun-2019
 Local
(UTC-8)
 Zulu
(UTC)
Morning civil twilight++
Sunrise04:2412:24
Sunset23:4007:40
Evening civil twilight++

Current date and time
Zulu (UTC)  26-Jun-2019 06:53:13
Local (UTC-8)  25-Jun-2019 22:53:13
 
METAR
PALH 
5nm NW 
260553Z 00000KT 10SM CLR 17/12 A3008 RMK AO2 SLP186 T01670117 10200 20161 53015
PANC 
6nm NW 
260553Z 25005KT 10SM FEW000 FEW045 SCT200 17/12 A3007 RMK AO2 SLP182 FU FEW000 T01720117 10194 20161 51015
PAMR 
7nm N 
260553Z 25005KT 10SM FU CLR 16/11 A3007 RMK AO2 SLP181 T01610111 10211 20156 53015
PAED 
9nm N 
260556Z COR AUTO 24010KT 6SM FU SCT060 16/11 A3007 RMK AO2 SLP178 T01550113 10187 20153 53015 $ COR 0608
PAFR 
11nm NE 
260558Z AUTO 21003KT 10SM CLR 16/12 A3004 RMK AO2 SLPNO T01550118 10207 20155 53015
TAF
PANC 
6nm NW 
260534Z 2606/2712 29007KT P6SM FEW045 SCT200 FM260800 20004KT 6SM FU FEW045 SCT200 FM261900 28007KT P6SM FEW200
PAED 
9nm N 
260300Z 2603/2709 25006KT 9000 HZ BKN050 QNH3000INS BECMG 2702/2703 25006KT 9999 NSW SCT150 QNH3005INS TX22/2702Z TN11/2613Z
NOTAMs
Click for the latest NOTAMs
NOTAMs are issued by the DoD/FAA and will open in a separate window not controlled by AirNav.

 

 
 

Would you like to see your business listed on this page?

 If your business provides an interesting product or service to pilots, flight crews, aircraft, or users of the Flying Crown Airport, you should consider listing it here.  To start the listing process, click on the button below
 
Add a business
 

Other Pages about Flying Crown Airport

Update a link
 
Copyright © AirNav, LLC. All rights reserved. Privacy Policy  Contact